Flight Track Log - Related Links

Times and Time Zones

All times are in EST time to prevent confusion due to time zone crossing. See the TAM3916 flight status page for this flight to view local times or setup timezone preferences in your user account.

Time Position Orientation Groundspeed Altitude Reporting Facility
EST Latitude Longitude Course Direction KTS MPH feet Rate Location/Type
Thu 07:30:00 AM -23.3085 -45.0526 78° East  Level Estimated
Thu 07:31:00 AM -23.2937 -44.9800 77° East  Level Estimated
Thu 07:32:00 AM -23.2788 -44.9073 77° East  Level Estimated
Thu 07:33:00 AM -23.2639 -44.8347 77° East  Level Estimated
Thu 07:34:00 AM -23.2489 -44.7621 77° East  Level Estimated
Thu 07:35:00 AM -23.2339 -44.6894 77° East  Level Estimated
Thu 07:36:00 AM -23.2189 -44.6169 77° East  Level Estimated
Thu 07:37:00 AM -23.2039 -44.5443 77° East  Level Estimated
Thu 07:38:00 AM -23.1888 -44.4717 77° East  Level Estimated
Thu 07:39:00 AM -23.1737 -44.3992 77° East  Level Estimated
Thu 07:40:00 AM -23.1585 -44.3267 77° East  Level Estimated
Thu 07:41:00 AM -23.1434 -44.2542 77° East  Level Estimated
Thu 07:42:00 AM -23.1281 -44.1817 77° East  Level Estimated
Thu 07:43:00 AM -23.1129 -44.1092 77° East  Level Estimated
Thu 07:44:00 AM -23.0976 -44.0368 77° East  Level Estimated
Thu 07:45:00 AM -23.0823 -43.9643 77° East  Level Estimated
Thu 07:46:00 AM -23.0669 -43.8919 77° East  Level Estimated
Thu 07:47:00 AM -23.0515 -43.8195 77° East  Level Estimated
Thu 07:48:00 AM -23.0361 -43.7471 77° East  Level Estimated
Thu 07:49:00 AM -23.0207 -43.6747 77° East  Level Estimated
Thu 07:50:00 AM -23.0052 -43.6024 77° East  Level Estimated
Thu 07:51:00 AM -22.9897 -43.5300 77° East  Level Estimated
Thu 07:52:00 AM -22.9741 -43.4577 77° East  Level Estimated
Thu 07:53:00 AM -22.9586 -43.3854 77° East  Level Estimated
Thu 07:54:00 AM -22.9430 -43.3131 77° East  Level Estimated
Thu 07:55:00 AM -22.9273 -43.2408 77° East  Level Estimated
Thu 07:56:00 AM -22.9116 -43.1686 77° East  Level Estimated
Thu 07:57:00 AM -22.9105 -43.1631 77° East  Level Estimated
Thu 07:58:00 AM -22.9105 -43.1631 250° West  Level Estimated
Thu 07:59:00 AM -22.9105 -43.1631 250° West  Level Estimated
Thu 08:00:00 AM -22.9105 -43.1631 250° West  Level Estimated
Thu 08:01:00 AM -22.9105 -43.1631 250° West  Level Estimated
Thu 08:02:00 AM -22.9105 -43.1631 250° West  Level Estimated
Thu 08:03:00 AM -22.9105 -43.1631 250° West  Level Estimated
Thu 08:04:00 AM -22.9105 -43.1631 250° West  Level Estimated
Thu 08:05:00 AM -22.9105 -43.1631 250° West  Level Estimated
Thu 08:06:00 AM -22.9105 -43.1631 250° West  Level Estimated
Thu 08:07:00 AM -22.9105 -43.1631 250° West  Level Estimated
Thu 08:08:00 AM -22.9105 -43.1631 250° West  Level Estimated
Thu 08:09:00 AM -22.9105 -43.1631 250° West  Level Estimated
Thu 08:10:00 AM -22.9105 -43.1631 250° West  Level Estimated
Thu 08:11:00 AM -22.9105 -43.1631 250° West  Level Estimated
Thu 08:12:00 AM -22.9105 -43.1631 250° West  Level Estimated

Login

Don't have an account? Register now (free) for customized features, flight alerts, and more!